createdAt,value
2022-11-09T00:04:15.693Z,1019
2022-11-09T00:09:43.779Z,1019
2022-11-09T00:15:09.181Z,1019
2022-11-09T00:20:53.841Z,1019.1
2022-11-09T00:26:23.641Z,1019.1
2022-11-09T00:32:02.326Z,1019.1
2022-11-09T00:37:46.391Z,1019.1
2022-11-09T00:43:02.157Z,1018.9
2022-11-09T00:48:40.207Z,1018.9
2022-11-09T00:54:06.785Z,1018.9
2022-11-09T00:59:38.476Z,1018.8
2022-11-09T01:05:28.208Z,1018.7
2022-11-09T01:10:42.659Z,1018.7
2022-11-09T01:16:30.249Z,1018.8
2022-11-09T01:21:47.047Z,1019
2022-11-09T01:27:22.175Z,1018.9
2022-11-09T01:32:53.275Z,1018.8
2022-11-09T01:38:29.860Z,1018.8
2022-11-09T01:43:51.975Z,1018.7
2022-11-09T01:49:23.135Z,1018.8
2022-11-09T01:55:16.787Z,1018.7
2022-11-09T02:00:30.729Z,1018.6
2022-11-09T02:06:11.850Z,1018.8
2022-11-09T02:11:36.904Z,1018.6
2022-11-09T02:17:32.077Z,1018.5
2022-11-09T02:23:02.364Z,1018.5
2022-11-09T02:28:24.780Z,1018.6
2022-11-09T02:33:47.386Z,1018.7
2022-11-09T02:39:27.697Z,1018.9
2022-11-09T02:45:08.863Z,1018.7
2022-11-09T02:50:37.357Z,1018.8
2022-11-09T02:56:07.934Z,1018.9
2022-11-09T03:01:43.211Z,1018.9
2022-11-09T03:07:21.866Z,1018.9
2022-11-09T03:12:40.208Z,1019
2022-11-09T03:18:28.041Z,1019
2022-11-09T03:24:03.125Z,1019
2022-11-09T03:29:24.599Z,1018.9
2022-11-09T03:34:47.930Z,1019
2022-11-09T03:40:31.298Z,1019.1
2022-11-09T03:46:02.560Z,1019.2
2022-11-09T03:51:33.136Z,1019.3
2022-11-09T03:57:15.708Z,1019.5
2022-11-09T04:02:44.734Z,1019.4
2022-11-09T04:08:20.278Z,1019.6
2022-11-09T04:13:52.833Z,1019.5
2022-11-09T04:19:09.274Z,1019.8
2022-11-09T04:24:52.232Z,1019.9
2022-11-09T04:30:21.461Z,1019.9
2022-11-09T04:35:57.152Z,1020
2022-11-09T04:46:56.483Z,1020
2022-11-09T04:52:32.360Z,1020
2022-11-09T04:58:03.394Z,1020
2022-11-09T05:03:47.923Z,1020
2022-11-09T05:09:01.622Z,1020.1
2022-11-09T05:14:38.080Z,1020.2
2022-11-09T05:20:24.934Z,1020.1
2022-11-09T05:25:47.229Z,1020.2
2022-11-09T05:31:14.939Z,1020.3
2022-11-09T05:37:02.333Z,1020.4
2022-11-09T05:42:27.160Z,1020.5
2022-11-09T05:47:52.392Z,1020.6
2022-11-09T05:53:28.744Z,1020.6
2022-11-09T05:59:14.081Z,1020.5
2022-11-09T06:04:37.626Z,1020.5
2022-11-09T06:09:52.289Z,1020.5
2022-11-09T06:15:38.260Z,1020.5
2022-11-09T06:21:03.773Z,1020.5
2022-11-09T06:26:50.629Z,1020.6
2022-11-09T06:32:23.962Z,1020.6
2022-11-09T06:37:41.085Z,1020.6
2022-11-09T06:43:31.308Z,1020.6
2022-11-09T06:48:54.594Z,1020.6
2022-11-09T06:54:29.127Z,1020.6
2022-11-09T07:00:11.546Z,1020.8
2022-11-09T07:05:40.535Z,1020.8
2022-11-09T07:11:01.840Z,1020.8
2022-11-09T07:16:27.713Z,1020.9
2022-11-09T07:22:03.909Z,1020.9
2022-11-09T07:27:40.161Z,1020.9
2022-11-09T07:33:09.547Z,1021
2022-11-09T07:38:49.603Z,1020.9
2022-11-09T07:44:27.638Z,1020.9
2022-11-09T07:49:42.046Z,1021
2022-11-09T07:55:10.852Z,1021
2022-11-09T08:00:52.058Z,1020.9
2022-11-09T08:06:25.582Z,1021
2022-11-09T08:12:14.751Z,1020.8
2022-11-09T08:17:37.946Z,1020.8
2022-11-09T08:23:09.596Z,1020.8
2022-11-09T08:28:34.048Z,1020.8
2022-11-09T08:34:06.297Z,1020.9
2022-11-09T08:39:44.407Z,1020.9
2022-11-09T08:45:26.303Z,1020.8
2022-11-09T08:50:49.193Z,1020.8
2022-11-09T08:56:18.423Z,1020.8
2022-11-09T09:01:54.573Z,1020.7
2022-11-09T09:07:29.769Z,1020.6
2022-11-09T09:13:12.972Z,1020.7
2022-11-09T09:18:30.087Z,1020.7
2022-11-09T09:23:57.886Z,1020.7
2022-11-09T09:29:44.705Z,1020.6
2022-11-09T09:35:19.170Z,1020.7
2022-11-09T09:40:47.827Z,1020.6
2022-11-09T09:46:15.937Z,1020.7
2022-11-09T09:51:55.900Z,1020.7
2022-11-09T09:57:24.775Z,1020.7
2022-11-09T10:02:44.184Z,1020.7
2022-11-09T10:08:27.362Z,1020.7
2022-11-09T10:14:01.217Z,1020.6
2022-11-09T10:19:38.572Z,1020.6
2022-11-09T10:25:18.859Z,1020.6
2022-11-09T10:30:30.993Z,1020.6
2022-11-09T10:36:14.648Z,1020.3
2022-11-09T10:41:58.355Z,1020.3
2022-11-09T10:47:13.419Z,1020.3
2022-11-09T10:52:48.148Z,1020.1
2022-11-09T10:58:16.023Z,1020
2022-11-09T11:03:47.594Z,1020
2022-11-09T11:09:28.951Z,1020
2022-11-09T11:14:57.766Z,1019.8
2022-11-09T11:20:29.690Z,1019.7
2022-11-09T11:26:23.631Z,1019.7
2022-11-09T11:31:45.131Z,1019.7
2022-11-09T11:37:12.975Z,1019.7
2022-11-09T11:42:49.183Z,1019.6
2022-11-09T11:48:26.959Z,1019.6
2022-11-09T11:54:02.356Z,1019.7
2022-11-09T11:59:31.278Z,1019.6
2022-11-09T12:05:01.810Z,1019.5
2022-11-09T12:10:44.917Z,1019.5
2022-11-09T12:16:07.309Z,1019.5
2022-11-09T12:21:31.944Z,1019.5
2022-11-09T12:27:30.828Z,1019.4
2022-11-09T12:32:58.596Z,1019.5
2022-11-09T12:38:30.141Z,1019.4
2022-11-09T12:43:42.403Z,1019.5
2022-11-09T12:49:16.583Z,1019.3
2022-11-09T12:54:55.580Z,1019.4
2022-11-09T13:00:39.382Z,1019.4
2022-11-09T13:06:02.425Z,1019.4
2022-11-09T13:11:27.106Z,1019.5
2022-11-09T13:17:06.712Z,1019.5
2022-11-09T13:22:34.113Z,1019.4
2022-11-09T13:28:09.360Z,1019.4
2022-11-09T13:33:56.013Z,1019.4
2022-11-09T13:39:30.464Z,1019.5
2022-11-09T13:45:08.724Z,1019.6
2022-11-09T13:50:28.301Z,1019.6
2022-11-09T13:55:53.887Z,1019.7
2022-11-09T14:01:38.609Z,1019.7
2022-11-09T14:06:58.160Z,1019.8
2022-11-09T14:12:28.207Z,1019.8
2022-11-09T14:18:14.722Z,1019.8
2022-11-09T14:23:59.434Z,1020
2022-11-09T14:29:23.883Z,1020.1
2022-11-09T14:35:01.504Z,1020.2
2022-11-09T14:40:34.317Z,1020.3
2022-11-09T14:45:55.185Z,1020.4
2022-11-09T14:51:43.209Z,1020.5
2022-11-09T14:56:52.480Z,1020.7
2022-11-09T15:02:40.066Z,1020.8
2022-11-09T15:08:11.992Z,1020.8
2022-11-09T15:13:54.120Z,1020.9
2022-11-09T15:19:16.611Z,1020.9
2022-11-09T15:24:46.907Z,1021
2022-11-09T15:30:18.344Z,1021
2022-11-09T15:35:58.436Z,1021.1
2022-11-09T15:41:28.625Z,1021.1
2022-11-09T15:47:08.107Z,1021.1
2022-11-09T15:52:31.557Z,1021.2
2022-11-09T15:58:11.494Z,1021.2
2022-11-09T16:03:30.599Z,1021.3
2022-11-09T16:08:54.699Z,1021.4
2022-11-09T16:14:34.205Z,1021.5
2022-11-09T16:20:28.359Z,1021.5
2022-11-09T16:25:58.133Z,1021.6
2022-11-09T16:31:07.963Z,1021.6
2022-11-09T16:37:05.220Z,1021.7
2022-11-09T16:42:29.935Z,1021.8
2022-11-09T16:48:02.644Z,1021.9
2022-11-09T16:53:32.526Z,1022
2022-11-09T16:59:10.213Z,1022.1
2022-11-09T17:04:46.843Z,1022.1
2022-11-09T17:09:57.718Z,1022.2
2022-11-09T17:15:39.372Z,1022.3
2022-11-09T17:21:12.757Z,1022.1
2022-11-09T17:26:34.603Z,1022.3
2022-11-09T17:32:35.326Z,1022.4
2022-11-09T17:38:01.503Z,1022.4
2022-11-09T17:43:36.390Z,1022.5
2022-11-09T17:48:59.481Z,1022.5
2022-11-09T17:54:24.462Z,1022.6
2022-11-09T18:00:03.577Z,1022.7
2022-11-09T18:05:47.184Z,1022.7
2022-11-09T18:11:07.887Z,1022.8
2022-11-09T18:16:33.939Z,1022.8
2022-11-09T18:22:20.315Z,1022.8
2022-11-09T18:27:57.987Z,1022.7
2022-11-09T18:33:13.779Z,1022.8
2022-11-09T18:38:58.790Z,1022.8
2022-11-09T18:44:26.303Z,1023
2022-11-09T18:50:02.736Z,1023
2022-11-09T18:55:31.420Z,1023.1
2022-11-09T19:01:18.157Z,1023.1
2022-11-09T19:06:41.875Z,1023.1
2022-11-09T19:12:06.401Z,1023.1
2022-11-09T19:17:52.266Z,1023.2
2022-11-09T19:23:18.333Z,1023.2
2022-11-09T19:29:03.141Z,1023.2
2022-11-09T19:34:21.095Z,1023.2
2022-11-09T19:39:52.700Z,1023.2
2022-11-09T19:45:35.234Z,1023.3
2022-11-09T19:50:48.579Z,1023.4
2022-11-09T19:56:35.705Z,1023.4
2022-11-09T20:01:57.411Z,1023.5
2022-11-09T20:07:35.272Z,1023.4
2022-11-09T20:12:57.390Z,1023.5
2022-11-09T20:18:49.806Z,1023.6
2022-11-09T20:24:18.186Z,1023.7
2022-11-09T20:29:47.026Z,1023.8
2022-11-09T20:35:14.397Z,1023.9
2022-11-09T20:40:48.179Z,1023.9
2022-11-09T20:46:36.996Z,1024
2022-11-09T20:52:15.273Z,1024.1
2022-11-09T20:57:41.460Z,1024.2
2022-11-09T21:03:13.732Z,1024.2
2022-11-09T21:08:27.065Z,1024.2
2022-11-09T21:14:07.591Z,1024.3
2022-11-09T21:19:31.642Z,1024.3
2022-11-09T21:25:05.693Z,1024.3
2022-11-09T21:30:47.139Z,1024.3
2022-11-09T21:36:18.633Z,1024.3
2022-11-09T21:41:59.092Z,1024.4
2022-11-09T21:47:17.128Z,1024.4
2022-11-09T21:52:49.092Z,1024.4
2022-11-09T21:58:36.958Z,1024.4
2022-11-09T22:04:16.160Z,1024.4
2022-11-09T22:10:06.315Z,1024.4
2022-11-09T22:15:20.675Z,1024.5
2022-11-09T22:20:45.915Z,1024.5
2022-11-09T22:26:06.256Z,1024.6
2022-11-09T22:32:04.420Z,1024.6
2022-11-09T22:37:22.175Z,1024.7
2022-11-09T22:43:07.662Z,1024.7
2022-11-09T22:48:35.696Z,1024.8
2022-11-09T22:53:52.767Z,1024.7
2022-11-09T22:59:27.892Z,1024.6
2022-11-09T23:05:07.749Z,1024.7
2022-11-09T23:10:38.035Z,1024.9
2022-11-09T23:16:16.461Z,1024.9
2022-11-09T23:21:42.258Z,1025
2022-11-09T23:27:26.107Z,1024.9
2022-11-09T23:32:49.128Z,1025
2022-11-09T23:38:27.672Z,1025.1
2022-11-09T23:43:57.830Z,1025.1
2022-11-09T23:49:34.314Z,1025
2022-11-09T23:54:55.511Z,1025.1
